<?xml version='1.0' encoding='UTF-8'?>
<gpx xmlns="http://www.topografix.com/GPX/1/1" creator="www.balnam.be" version="1.1" xmlns:xsi="http://www.w3.org/2001/XMLSchema-instance" xsi:schemaLocation="http://www.topografix.com/GPX/1/1 http://www.topografix.com/GPX/1/1/gpx.xsd">
<trk>
<name>bpwtb1</name>
<cmt>r</cmt>
<desc>Thorembais-les-Béguines Chemin n°1 Rue de Saint-Michel / Rue Mayeur Séverin / Chaussée de Charleroi</desc>
<link href="https://chemins.be/thorembaislesbeguines/chemin/1"/><trkseg>
<trkpt lat="50.665790" lon="4.820837"><time>2026-05-02T15:25:07Z</time></trkpt>
<trkpt lat="50.664510" lon="4.819410"><time>2026-05-02T15:35:07Z</time></trkpt>
</trkseg></trk>
<trk>
<name>bpwtb1</name>
<cmt>s</cmt>
<desc>Thorembais-les-Béguines Chemin n°1 Rue de Saint-Michel / Rue Mayeur Séverin / Chaussée de Charleroi</desc>
<link href="https://chemins.be/thorembaislesbeguines/chemin/1"/><trkseg>
<trkpt lat="50.664510" lon="4.819410"><time>2026-05-02T15:35:07Z</time></trkpt>
<trkpt lat="50.663795" lon="4.818286"><time>2026-05-02T15:45:07Z</time></trkpt>
<trkpt lat="50.663198" lon="4.816824"><time>2026-05-02T15:55:07Z</time></trkpt>
</trkseg></trk>
<trk>
<name>bpwtb1</name>
<cmt>v</cmt>
<desc>Thorembais-les-Béguines Chemin n°1 Rue de Saint-Michel / Rue Mayeur Séverin / Chaussée de Charleroi</desc>
<link href="https://chemins.be/thorembaislesbeguines/chemin/1"/><trkseg>
<trkpt lat="50.663198" lon="4.816824"><time>2026-05-02T15:55:07Z</time></trkpt>
<trkpt lat="50.663003" lon="4.816157"><time>2026-05-02T16:05:07Z</time></trkpt>
<trkpt lat="50.662024" lon="4.815681"><time>2026-05-02T16:15:07Z</time></trkpt>
</trkseg></trk>
<trk>
<name>bpwtb1</name>
<cmt>d</cmt>
<desc>Thorembais-les-Béguines Chemin n°1 Rue de Saint-Michel / Rue Mayeur Séverin / Chaussée de Charleroi</desc>
<link href="https://chemins.be/thorembaislesbeguines/chemin/1"/><trkseg>
<trkpt lat="50.662024" lon="4.815681"><time>2026-05-02T16:15:07Z</time></trkpt>
<trkpt lat="50.661831" lon="4.815539"><time>2026-05-02T16:25:07Z</time></trkpt>
</trkseg></trk>
<trk>
<name>bpwtb1</name>
<cmt>r</cmt>
<desc>Thorembais-les-Béguines Chemin n°1 Rue de Saint-Michel / Rue Mayeur Séverin / Chaussée de Charleroi</desc>
<link href="https://chemins.be/thorembaislesbeguines/chemin/1"/><trkseg>
<trkpt lat="50.661831" lon="4.815539"><time>2026-05-02T16:25:07Z</time></trkpt>
<trkpt lat="50.661248" lon="4.814245"><time>2026-05-02T16:35:07Z</time></trkpt>
<trkpt lat="50.660766" lon="4.813491"><time>2026-05-02T16:45:07Z</time></trkpt>
</trkseg></trk>
<trk>
<name>bpwtb1</name>
<cmt>s</cmt>
<desc>Thorembais-les-Béguines Chemin n°1 Rue de Saint-Michel / Rue Mayeur Séverin / Chaussée de Charleroi</desc>
<link href="https://chemins.be/thorembaislesbeguines/chemin/1"/><trkseg>
<trkpt lat="50.660766" lon="4.813491"><time>2026-05-02T16:45:07Z</time></trkpt>
<trkpt lat="50.659825" lon="4.812591"><time>2026-05-02T16:55:07Z</time></trkpt>
<trkpt lat="50.654936" lon="4.804993"><time>2026-05-02T17:05:07Z</time></trkpt>
<trkpt lat="50.653195" lon="4.801838"><time>2026-05-02T17:15:07Z</time></trkpt>
<trkpt lat="50.651589" lon="4.798415"><time>2026-05-02T17:25:07Z</time></trkpt>
<trkpt lat="50.650300" lon="4.796933"><time>2026-05-02T17:35:07Z</time></trkpt>
<trkpt lat="50.649674" lon="4.796008"><time>2026-05-02T17:45:07Z</time></trkpt>
<trkpt lat="50.648696" lon="4.793242"><time>2026-05-02T17:55:07Z</time></trkpt>
</trkseg></trk>
<trk>
<name>bpwtb1</name>
<cmt>r</cmt>
<desc>Thorembais-les-Béguines Chemin n°1 Rue de Saint-Michel / Rue Mayeur Séverin / Chaussée de Charleroi</desc>
<link href="https://chemins.be/thorembaislesbeguines/chemin/1"/><trkseg>
<trkpt lat="50.648696" lon="4.793242"><time>2026-05-02T17:55:07Z</time></trkpt>
<trkpt lat="50.646317" lon="4.789643"><time>2026-05-02T18:05:07Z</time></trkpt>
</trkseg></trk>
<trk>
<name>bpwtb1</name>
<cmt>d</cmt>
<desc>Thorembais-les-Béguines Chemin n°1 Rue de Saint-Michel / Rue Mayeur Séverin / Chaussée de Charleroi</desc>
<link href="https://chemins.be/thorembaislesbeguines/chemin/1"/><trkseg>
<trkpt lat="50.646317" lon="4.789643"><time>2026-05-02T18:05:07Z</time></trkpt>
<trkpt lat="50.645763" lon="4.788747"><time>2026-05-02T18:15:07Z</time></trkpt>
<trkpt lat="50.643972" lon="4.786738"><time>2026-05-02T18:25:07Z</time></trkpt>
</trkseg>
</trk>
<trk>
<name>bpwtb10</name>
<cmt>r</cmt>
<desc>Thorembais-les-Béguines Chemin n°10 Tiège Gobart</desc>
<link href="https://chemins.be/thorembaislesbeguines/chemin/10"/><trkseg>
<trkpt lat="50.638535" lon="4.791256"><time>2026-05-02T15:25:07Z</time></trkpt>
<trkpt lat="50.638286" lon="4.792950"><time>2026-05-02T15:35:07Z</time></trkpt>
<trkpt lat="50.637419" lon="4.794002"><time>2026-05-02T15:45:07Z</time></trkpt>
</trkseg>
</trk>
<trk>
<name>bpwtb11</name>
<cmt>s</cmt>
<desc>Thorembais-les-Béguines Chemin n°11 </desc>
<link href="https://chemins.be/thorembaislesbeguines/chemin/11"/><trkseg>
<trkpt lat="50.651696" lon="4.808456"><time>2026-05-02T15:25:07Z</time></trkpt>
<trkpt lat="50.651161" lon="4.814348"><time>2026-05-02T15:35:07Z</time></trkpt>
<trkpt lat="50.651128" lon="4.815959"><time>2026-05-02T15:45:07Z</time></trkpt>
<trkpt lat="50.650536" lon="4.817948"><time>2026-05-02T15:55:07Z</time></trkpt>
<trkpt lat="50.650666" lon="4.821427"><time>2026-05-02T16:05:07Z</time></trkpt>
<trkpt lat="50.650239" lon="4.825072"><time>2026-05-02T16:15:07Z</time></trkpt>
<trkpt lat="50.649195" lon="4.827593"><time>2026-05-02T16:25:07Z</time></trkpt>
<trkpt lat="50.647596" lon="4.831663"><time>2026-05-02T16:35:07Z</time></trkpt>
</trkseg>
</trk>
<trk>
<name>bpwtb14</name>
<cmt>s</cmt>
<desc>Thorembais-les-Béguines Chemin n°14 </desc>
<link href="https://chemins.be/thorembaislesbeguines/chemin/14"/><trkseg>
<trkpt lat="50.660247" lon="4.810696"><time>2026-05-02T15:25:07Z</time></trkpt>
<trkpt lat="50.659837" lon="4.803407"><time>2026-05-02T15:35:07Z</time></trkpt>
</trkseg>
</trk>
<trk>
<name>bpwtb15</name>
<cmt>r</cmt>
<desc>Thorembais-les-Béguines Chemin n°15 Rue Jean Sprimont</desc>
<link href="https://chemins.be/thorembaislesbeguines/chemin/15"/><trkseg>
<trkpt lat="50.657314" lon="4.816277"><time>2026-05-02T15:25:07Z</time></trkpt>
<trkpt lat="50.657520" lon="4.816037"><time>2026-05-02T15:35:07Z</time></trkpt>
<trkpt lat="50.657822" lon="4.815397"><time>2026-05-02T15:45:07Z</time></trkpt>
<trkpt lat="50.658219" lon="4.814948"><time>2026-05-02T15:55:07Z</time></trkpt>
</trkseg>
</trk>
<trk>
<name>bpwtb16</name>
<cmt>q</cmt>
<desc>Thorembais-les-Béguines Sentier n°16 </desc>
<link href="https://chemins.be/thorembaislesbeguines/sentier/16"/><trkseg>
<trkpt lat="50.659003" lon="4.816048"><time>2026-05-02T15:25:07Z</time></trkpt>
<trkpt lat="50.659488" lon="4.813733"><time>2026-05-02T15:35:07Z</time></trkpt>
<trkpt lat="50.660343" lon="4.811323"><time>2026-05-02T15:45:07Z</time></trkpt>
</trkseg>
</trk>
<trk>
<name>bpwtb17</name>
<cmt>q</cmt>
<desc>Thorembais-les-Béguines Sentier n°17 </desc>
<link href="https://chemins.be/thorembaislesbeguines/sentier/17"/><trkseg>
<trkpt lat="50.656230" lon="4.798104"><time>2026-05-02T15:25:07Z</time></trkpt>
<trkpt lat="50.654893" lon="4.804484"><time>2026-05-02T15:35:07Z</time></trkpt>
</trkseg>
</trk>
<trk>
<name>bpwtb18</name>
<cmt>s</cmt>
<desc>Thorembais-les-Béguines Sentier n°18 </desc>
<link href="https://chemins.be/thorembaislesbeguines/sentier/18"/><trkseg>
<trkpt lat="50.663272" lon="4.816400"><time>2026-05-02T15:25:07Z</time></trkpt>
<trkpt lat="50.663209" lon="4.814094"><time>2026-05-02T15:35:07Z</time></trkpt>
<trkpt lat="50.663214" lon="4.812708"><time>2026-05-02T15:45:07Z</time></trkpt>
<trkpt lat="50.663041" lon="4.808534"><time>2026-05-02T15:55:07Z</time></trkpt>
</trkseg>
</trk>
<trk>
<name>bpwtb19</name>
<cmt>q</cmt>
<desc>Thorembais-les-Béguines Sentier n°19 </desc>
<link href="https://chemins.be/thorembaislesbeguines/sentier/19"/><trkseg>
<trkpt lat="50.658216" lon="4.814952"><time>2026-05-02T15:25:07Z</time></trkpt>
<trkpt lat="50.656555" lon="4.812136"><time>2026-05-02T15:35:07Z</time></trkpt>
<trkpt lat="50.653610" lon="4.806296"><time>2026-05-02T15:45:07Z</time></trkpt>
<trkpt lat="50.653739" lon="4.805336"><time>2026-05-02T15:55:07Z</time></trkpt>
<trkpt lat="50.650095" lon="4.801371"><time>2026-05-02T16:05:07Z</time></trkpt>
<trkpt lat="50.648515" lon="4.798486"><time>2026-05-02T16:15:07Z</time></trkpt>
</trkseg>
</trk>
<trk>
<name>bpwtb2</name>
<cmt>s</cmt>
<desc>Thorembais-les-Béguines Chemin n°2 </desc>
<link href="https://chemins.be/thorembaislesbeguines/chemin/2"/><trkseg>
<trkpt lat="50.642477" lon="4.821151"><time>2026-05-02T15:25:07Z</time></trkpt>
<trkpt lat="50.650184" lon="4.825142"><time>2026-05-02T15:35:07Z</time></trkpt>
<trkpt lat="50.651511" lon="4.826243"><time>2026-05-02T15:45:07Z</time></trkpt>
<trkpt lat="50.655023" lon="4.829106"><time>2026-05-02T15:55:07Z</time></trkpt>
<trkpt lat="50.656587" lon="4.829348"><time>2026-05-02T16:05:07Z</time></trkpt>
</trkseg></trk>
<trk>
<name>bpwtb2</name>
<cmt>d</cmt>
<desc>Thorembais-les-Béguines Chemin n°2 </desc>
<link href="https://chemins.be/thorembaislesbeguines/chemin/2"/><trkseg>
<trkpt lat="50.656587" lon="4.829348"><time>2026-05-02T16:05:07Z</time></trkpt>
<trkpt lat="50.659873" lon="4.830313"><time>2026-05-02T16:15:07Z</time></trkpt>
<trkpt lat="50.662545" lon="4.832164"><time>2026-05-02T16:25:07Z</time></trkpt>
</trkseg></trk>
<trk>
<name>bpwtb2</name>
<cmt>r</cmt>
<desc>Thorembais-les-Béguines Chemin n°2 </desc>
<link href="https://chemins.be/thorembaislesbeguines/chemin/2"/><trkseg>
<trkpt lat="50.662545" lon="4.832164"><time>2026-05-02T16:25:07Z</time></trkpt>
<trkpt lat="50.663379" lon="4.832794"><time>2026-05-02T16:35:07Z</time></trkpt>
</trkseg></trk>
<trk>
<name>bpwtb2</name>
<cmt>s</cmt>
<desc>Thorembais-les-Béguines Chemin n°2 </desc>
<link href="https://chemins.be/thorembaislesbeguines/chemin/2"/><trkseg>
<trkpt lat="50.663379" lon="4.832794"><time>2026-05-02T16:35:07Z</time></trkpt>
<trkpt lat="50.665350" lon="4.834734"><time>2026-05-02T16:45:07Z</time></trkpt>
</trkseg>
</trk>
<trk>
<name>bpwtb20</name>
<cmt>q</cmt>
<desc>Thorembais-les-Béguines Sentier n°20 </desc>
<link href="https://chemins.be/thorembaislesbeguines/sentier/20"/><trkseg>
<trkpt lat="50.655895" lon="4.817645"><time>2026-05-02T15:25:07Z</time></trkpt>
<trkpt lat="50.656151" lon="4.816573"><time>2026-05-02T15:35:07Z</time></trkpt>
<trkpt lat="50.656277" lon="4.816447"><time>2026-05-02T15:45:07Z</time></trkpt>
<trkpt lat="50.656278" lon="4.816418"><time>2026-05-02T15:55:07Z</time></trkpt>
<trkpt lat="50.656045" lon="4.816190"><time>2026-05-02T16:05:07Z</time></trkpt>
<trkpt lat="50.655769" lon="4.815466"><time>2026-05-02T16:15:07Z</time></trkpt>
<trkpt lat="50.655488" lon="4.813752"><time>2026-05-02T16:25:07Z</time></trkpt>
</trkseg>
</trk>
<trk>
<name>bpwtb21</name>
<cmt>r</cmt>
<desc>Thorembais-les-Béguines Sentier n°21 </desc>
<link href="https://chemins.be/thorembaislesbeguines/sentier/21"/><trkseg>
<trkpt lat="50.658336" lon="4.816973"><time>2026-05-02T15:25:07Z</time></trkpt>
<trkpt lat="50.658135" lon="4.816327"><time>2026-05-02T15:35:07Z</time></trkpt>
</trkseg></trk>
<trk>
<name>bpwtb21</name>
<cmt>v</cmt>
<desc>Thorembais-les-Béguines Sentier n°21 </desc>
<link href="https://chemins.be/thorembaislesbeguines/sentier/21"/><trkseg>
<trkpt lat="50.658135" lon="4.816327"><time>2026-05-02T15:35:07Z</time></trkpt>
<trkpt lat="50.658176" lon="4.815998"><time>2026-05-02T15:45:07Z</time></trkpt>
<trkpt lat="50.657827" lon="4.815436"><time>2026-05-02T15:55:07Z</time></trkpt>
</trkseg>
</trk>
<trk>
<name>bpwtb22</name>
<cmt>q</cmt>
<desc>Thorembais-les-Béguines Sentier n°22 </desc>
<link href="https://chemins.be/thorembaislesbeguines/sentier/22"/><trkseg>
<trkpt lat="50.663245" lon="4.816428"><time>2026-05-02T15:25:07Z</time></trkpt>
<trkpt lat="50.665094" lon="4.817110"><time>2026-05-02T15:35:07Z</time></trkpt>
<trkpt lat="50.666045" lon="4.817600"><time>2026-05-02T15:45:07Z</time></trkpt>
<trkpt lat="50.666870" lon="4.818160"><time>2026-05-02T15:55:07Z</time></trkpt>
</trkseg>
</trk>
<trk>
<name>bpwtb24</name>
<cmt>v</cmt>
<desc>Thorembais-les-Béguines Sentier n°24 Rue des Vergers / Sentier de Louette (n°24)</desc>
<link href="https://chemins.be/thorembaislesbeguines/sentier/24"/><trkseg>
<trkpt lat="50.658610" lon="4.817742"><time>2026-05-02T15:25:07Z</time></trkpt>
<trkpt lat="50.659123" lon="4.816989"><time>2026-05-02T15:35:07Z</time></trkpt>
<trkpt lat="50.659424" lon="4.816547"><time>2026-05-02T15:45:07Z</time></trkpt>
<trkpt lat="50.660366" lon="4.815314"><time>2026-05-02T15:55:07Z</time></trkpt>
<trkpt lat="50.660662" lon="4.814888"><time>2026-05-02T16:05:07Z</time></trkpt>
<trkpt lat="50.660737" lon="4.814591"><time>2026-05-02T16:15:07Z</time></trkpt>
</trkseg>
</trk>
<trk>
<name>bpwtb25</name>
<cmt>r</cmt>
<desc>Thorembais-les-Béguines Chemin n°25 Rue du Chêne</desc>
<link href="https://chemins.be/thorembaislesbeguines/chemin/25"/><trkseg>
<trkpt lat="50.662137" lon="4.828426"><time>2026-05-02T15:25:07Z</time></trkpt>
<trkpt lat="50.663030" lon="4.827657"><time>2026-05-02T15:35:07Z</time></trkpt>
<trkpt lat="50.664758" lon="4.824887"><time>2026-05-02T15:45:07Z</time></trkpt>
<trkpt lat="50.665346" lon="4.822819"><time>2026-05-02T15:55:07Z</time></trkpt>
<trkpt lat="50.665228" lon="4.822154"><time>2026-05-02T16:05:07Z</time></trkpt>
<trkpt lat="50.665396" lon="4.821489"><time>2026-05-02T16:15:07Z</time></trkpt>
<trkpt lat="50.665898" lon="4.820852"><time>2026-05-02T16:25:07Z</time></trkpt>
<trkpt lat="50.666928" lon="4.819207"><time>2026-05-02T16:35:07Z</time></trkpt>
<trkpt lat="50.667648" lon="4.818090"><time>2026-05-02T16:45:07Z</time></trkpt>
<trkpt lat="50.668777" lon="4.817896"><time>2026-05-02T16:55:07Z</time></trkpt>
</trkseg>
</trk>
<trk>
<name>bpwtb25bis</name>
<cmt>s</cmt>
<desc>Thorembais-les-Béguines Chemin n°25bis </desc>
<link href="https://chemins.be/thorembaislesbeguines/chemin/25bis"/><trkseg>
<trkpt lat="50.659970" lon="4.804838"><time>2026-05-02T15:25:07Z</time></trkpt>
<trkpt lat="50.660260" lon="4.803865"><time>2026-05-02T15:35:07Z</time></trkpt>
</trkseg>
</trk>
<trk>
<name>bpwtb26</name>
<cmt>r</cmt>
<desc>Thorembais-les-Béguines Chemin n°26 Rue de Blanmont</desc>
<link href="https://chemins.be/thorembaislesbeguines/chemin/26"/><trkseg>
<trkpt lat="50.659578" lon="4.820891"><time>2026-05-02T15:25:07Z</time></trkpt>
<trkpt lat="50.660458" lon="4.823261"><time>2026-05-02T15:35:07Z</time></trkpt>
<trkpt lat="50.660763" lon="4.823533"><time>2026-05-02T15:45:07Z</time></trkpt>
<trkpt lat="50.661328" lon="4.826155"><time>2026-05-02T15:55:07Z</time></trkpt>
<trkpt lat="50.662083" lon="4.828468"><time>2026-05-02T16:05:07Z</time></trkpt>
<trkpt lat="50.662354" lon="4.830493"><time>2026-05-02T16:15:07Z</time></trkpt>
<trkpt lat="50.662475" lon="4.831781"><time>2026-05-02T16:25:07Z</time></trkpt>
</trkseg>
</trk>
<trk>
<name>bpwtb28</name>
<cmt>s</cmt>
<desc>Thorembais-les-Béguines Chemin n°28 </desc>
<link href="https://chemins.be/thorembaislesbeguines/chemin/28"/><trkseg>
<trkpt lat="50.662132" lon="4.834324"><time>2026-05-02T15:25:07Z</time></trkpt>
<trkpt lat="50.661820" lon="4.835877"><time>2026-05-02T15:35:07Z</time></trkpt>
<trkpt lat="50.660829" lon="4.838611"><time>2026-05-02T15:45:07Z</time></trkpt>
<trkpt lat="50.660813" lon="4.839502"><time>2026-05-02T15:55:07Z</time></trkpt>
<trkpt lat="50.660854" lon="4.839784"><time>2026-05-02T16:05:07Z</time></trkpt>
</trkseg>
</trk>
<trk>
<name>bpwtb3</name>
<cmt>r</cmt>
<desc>Thorembais-les-Béguines Chemin n°3 Rue de Mellemont / Rue de Coqiamont</desc>
<link href="https://chemins.be/thorembaislesbeguines/chemin/3"/><trkseg>
<trkpt lat="50.658483" lon="4.818080"><time>2026-05-02T15:25:07Z</time></trkpt>
<trkpt lat="50.657839" lon="4.817254"><time>2026-05-02T15:35:07Z</time></trkpt>
<trkpt lat="50.655534" lon="4.813498"><time>2026-05-02T15:45:07Z</time></trkpt>
<trkpt lat="50.652832" lon="4.809923"><time>2026-05-02T15:55:07Z</time></trkpt>
<trkpt lat="50.651868" lon="4.808175"><time>2026-05-02T16:05:07Z</time></trkpt>
<trkpt lat="50.651083" lon="4.806442"><time>2026-05-02T16:15:07Z</time></trkpt>
<trkpt lat="50.650390" lon="4.804286"><time>2026-05-02T16:25:07Z</time></trkpt>
<trkpt lat="50.647746" lon="4.799751"><time>2026-05-02T16:35:07Z</time></trkpt>
</trkseg>
</trk>
<trk>
<name>bpwtb30</name>
<cmt>q</cmt>
<desc>Thorembais-les-Béguines Sentier n°30 </desc>
<link href="https://chemins.be/thorembaislesbeguines/sentier/30"/><trkseg>
<trkpt lat="50.655379" lon="4.813836"><time>2026-05-02T15:25:07Z</time></trkpt>
<trkpt lat="50.650838" lon="4.814260"><time>2026-05-02T15:35:07Z</time></trkpt>
<trkpt lat="50.645610" lon="4.813136"><time>2026-05-02T15:45:07Z</time></trkpt>
</trkseg>
</trk>
<trk>
<name>bpwtb31</name>
<cmt>r</cmt>
<desc>Thorembais-les-Béguines Sentier n°31 </desc>
<link href="https://chemins.be/thorembaislesbeguines/sentier/31"/><trkseg>
<trkpt lat="50.644885" lon="4.800952"><time>2026-05-02T15:25:07Z</time></trkpt>
<trkpt lat="50.645402" lon="4.801725"><time>2026-05-02T15:35:07Z</time></trkpt>
</trkseg></trk>
<trk>
<name>bpwtb31</name>
<cmt>q</cmt>
<desc>Thorembais-les-Béguines Sentier n°31 </desc>
<link href="https://chemins.be/thorembaislesbeguines/sentier/31"/><trkseg>
<trkpt lat="50.645402" lon="4.801725"><time>2026-05-02T15:35:07Z</time></trkpt>
<trkpt lat="50.646279" lon="4.802495"><time>2026-05-02T15:45:07Z</time></trkpt>
<trkpt lat="50.650336" lon="4.804187"><time>2026-05-02T15:55:07Z</time></trkpt>
</trkseg>
</trk>
<trk>
<name>bpwtb32</name>
<cmt>r</cmt>
<desc>Thorembais-les-Béguines Sentier n°32 </desc>
<link href="https://chemins.be/thorembaislesbeguines/sentier/32"/><trkseg>
<trkpt lat="50.646198" lon="4.801217"><time>2026-05-02T15:25:07Z</time></trkpt>
<trkpt lat="50.639853" lon="4.805959"><time>2026-05-02T15:35:07Z</time></trkpt>
<trkpt lat="50.637748" lon="4.806917"><time>2026-05-02T15:45:07Z</time></trkpt>
</trkseg>
</trk>
<trk>
<name>bpwtb33</name>
<cmt>q</cmt>
<desc>Thorembais-les-Béguines Sentier n°33 </desc>
<link href="https://chemins.be/thorembaislesbeguines/sentier/33"/><trkseg>
<trkpt lat="50.638580" lon="4.791270"><time>2026-05-02T15:25:07Z</time></trkpt>
<trkpt lat="50.640013" lon="4.792654"><time>2026-05-02T15:35:07Z</time></trkpt>
<trkpt lat="50.640255" lon="4.792911"><time>2026-05-02T15:45:07Z</time></trkpt>
</trkseg></trk>
<trk>
<name>bpwtb33</name>
<cmt>r</cmt>
<desc>Thorembais-les-Béguines Sentier n°33 </desc>
<link href="https://chemins.be/thorembaislesbeguines/sentier/33"/><trkseg>
<trkpt lat="50.640255" lon="4.792911"><time>2026-05-02T15:45:07Z</time></trkpt>
<trkpt lat="50.644899" lon="4.800952"><time>2026-05-02T15:55:07Z</time></trkpt>
</trkseg>
</trk>
<trk>
<name>bpwtb34</name>
<cmt>r</cmt>
<desc>Thorembais-les-Béguines Sentier n°34 Rue du Buisson</desc>
<link href="https://chemins.be/thorembaislesbeguines/sentier/34"/><trkseg>
<trkpt lat="50.638358" lon="4.793007"><time>2026-05-02T15:25:07Z</time></trkpt>
<trkpt lat="50.640174" lon="4.792925"><time>2026-05-02T15:35:07Z</time></trkpt>
</trkseg></trk>
<trk>
<name>bpwtb34</name>
<cmt>q</cmt>
<desc>Thorembais-les-Béguines Sentier n°34 Rue du Buisson</desc>
<link href="https://chemins.be/thorembaislesbeguines/sentier/34"/><trkseg>
<trkpt lat="50.640174" lon="4.792925"><time>2026-05-02T15:35:07Z</time></trkpt>
<trkpt lat="50.641026" lon="4.791108"><time>2026-05-02T15:45:07Z</time></trkpt>
</trkseg>
</trk>
<trk>
<name>bpwtb36</name>
<cmt>v</cmt>
<desc>Thorembais-les-Béguines Sentier n°36 Rue de Blanmont</desc>
<link href="https://chemins.be/thorembaislesbeguines/sentier/36"/><trkseg>
<trkpt lat="50.655472" lon="4.820243"><time>2026-05-02T15:25:07Z</time></trkpt>
<trkpt lat="50.656506" lon="4.820182"><time>2026-05-02T15:35:07Z</time></trkpt>
<trkpt lat="50.657441" lon="4.820078"><time>2026-05-02T15:45:07Z</time></trkpt>
</trkseg></trk>
<trk>
<name>bpwtb36</name>
<cmt>q</cmt>
<desc>Thorembais-les-Béguines Sentier n°36 Rue de Blanmont</desc>
<link href="https://chemins.be/thorembaislesbeguines/sentier/36"/><trkseg>
<trkpt lat="50.657441" lon="4.820078"><time>2026-05-02T15:45:07Z</time></trkpt>
<trkpt lat="50.659188" lon="4.821778"><time>2026-05-02T15:55:07Z</time></trkpt>
<trkpt lat="50.660271" lon="4.822948"><time>2026-05-02T16:05:07Z</time></trkpt>
<trkpt lat="50.660736" lon="4.823603"><time>2026-05-02T16:15:07Z</time></trkpt>
<trkpt lat="50.661720" lon="4.824914"><time>2026-05-02T16:25:07Z</time></trkpt>
<trkpt lat="50.663357" lon="4.824661"><time>2026-05-02T16:35:07Z</time></trkpt>
<trkpt lat="50.663778" lon="4.824962"><time>2026-05-02T16:45:07Z</time></trkpt>
<trkpt lat="50.664234" lon="4.825589"><time>2026-05-02T16:55:07Z</time></trkpt>
<trkpt lat="50.665282" lon="4.826603"><time>2026-05-02T17:05:07Z</time></trkpt>
<trkpt lat="50.667025" lon="4.829068"><time>2026-05-02T17:15:07Z</time></trkpt>
</trkseg>
</trk>
<trk>
<name>bpwtb37</name>
<cmt>r</cmt>
<desc>Thorembais-les-Béguines Sentier n°37 </desc>
<link href="https://chemins.be/thorembaislesbeguines/sentier/37"/><trkseg>
<trkpt lat="50.668236" lon="4.816515"><time>2026-05-02T15:25:07Z</time></trkpt>
<trkpt lat="50.667899" lon="4.817556"><time>2026-05-02T15:35:07Z</time></trkpt>
<trkpt lat="50.667641" lon="4.818039"><time>2026-05-02T15:45:07Z</time></trkpt>
</trkseg>
</trk>
<trk>
<name>bpwtb38</name>
<cmt>v</cmt>
<desc>Thorembais-les-Béguines Chemin n°38 Cortil de Villers</desc>
<link href="https://chemins.be/thorembaislesbeguines/chemin/38"/><trkseg>
<trkpt lat="50.662129" lon="4.819147"><time>2026-05-02T15:25:07Z</time></trkpt>
<trkpt lat="50.662613" lon="4.818482"><time>2026-05-02T15:35:07Z</time></trkpt>
<trkpt lat="50.662978" lon="4.817981"><time>2026-05-02T15:45:07Z</time></trkpt>
<trkpt lat="50.663198" lon="4.816908"><time>2026-05-02T15:55:07Z</time></trkpt>
</trkseg>
</trk>
<trk>
<name>bpwtb39</name>
<cmt>q</cmt>
<desc>Thorembais-les-Béguines Sentier n°39 </desc>
<link href="https://chemins.be/thorembaislesbeguines/sentier/39"/><trkseg>
<trkpt lat="50.664654" lon="4.819454"><time>2026-05-02T15:25:07Z</time></trkpt>
<trkpt lat="50.666473" lon="4.818453"><time>2026-05-02T15:35:07Z</time></trkpt>
<trkpt lat="50.667509" lon="4.818124"><time>2026-05-02T15:45:07Z</time></trkpt>
</trkseg>
</trk>
<trk>
<name>bpwtb3bis</name>
<cmt>s</cmt>
<desc>Thorembais-les-Béguines Chemin n°3bis </desc>
<link href="https://chemins.be/thorembaislesbeguines/chemin/3bis"/><trkseg>
<trkpt lat="50.658415" lon="4.817004"><time>2026-05-02T15:25:07Z</time></trkpt>
<trkpt lat="50.658628" lon="4.817728"><time>2026-05-02T15:35:07Z</time></trkpt>
</trkseg>
</trk>
<trk>
<name>bpwtb40</name>
<cmt>r</cmt>
<desc>Thorembais-les-Béguines Sentier n°40 Rue des Vergers</desc>
<link href="https://chemins.be/thorembaislesbeguines/sentier/40"/><trkseg>
<trkpt lat="50.660793" lon="4.818229"><time>2026-05-02T15:25:07Z</time></trkpt>
<trkpt lat="50.660078" lon="4.819283"><time>2026-05-02T15:35:07Z</time></trkpt>
</trkseg>
</trk>
<trk>
<name>bpwtb43</name>
<cmt>q</cmt>
<desc>Thorembais-les-Béguines Sentier n°43 </desc>
<link href="https://chemins.be/thorembaislesbeguines/sentier/43"/><trkseg>
<trkpt lat="50.640255" lon="4.792897"><time>2026-05-02T15:25:07Z</time></trkpt>
<trkpt lat="50.642080" lon="4.792829"><time>2026-05-02T15:35:07Z</time></trkpt>
<trkpt lat="50.643625" lon="4.790849"><time>2026-05-02T15:45:07Z</time></trkpt>
<trkpt lat="50.644317" lon="4.790841"><time>2026-05-02T15:55:07Z</time></trkpt>
<trkpt lat="50.644408" lon="4.790531"><time>2026-05-02T16:05:07Z</time></trkpt>
<trkpt lat="50.645683" lon="4.788676"><time>2026-05-02T16:15:07Z</time></trkpt>
<trkpt lat="50.646987" lon="4.788334"><time>2026-05-02T16:25:07Z</time></trkpt>
</trkseg>
</trk>
<trk>
<name>bpwtb44</name>
<cmt>q</cmt>
<desc>Thorembais-les-Béguines Sentier n°44 Chaussée de Charleroi</desc>
<link href="https://chemins.be/thorembaislesbeguines/sentier/44"/><trkseg>
<trkpt lat="50.642265" lon="4.792868"><time>2026-05-02T15:25:07Z</time></trkpt>
<trkpt lat="50.645141" lon="4.793826"><time>2026-05-02T15:35:07Z</time></trkpt>
<trkpt lat="50.646138" lon="4.792410"><time>2026-05-02T15:45:07Z</time></trkpt>
</trkseg></trk>
<trk>
<name>bpwtb44</name>
<cmt>r</cmt>
<desc>Thorembais-les-Béguines Sentier n°44 Chaussée de Charleroi</desc>
<link href="https://chemins.be/thorembaislesbeguines/sentier/44"/><trkseg>
<trkpt lat="50.646138" lon="4.792410"><time>2026-05-02T15:45:07Z</time></trkpt>
<trkpt lat="50.647577" lon="4.794222"><time>2026-05-02T15:55:07Z</time></trkpt>
</trkseg></trk>
<trk>
<name>bpwtb44</name>
<cmt>q</cmt>
<desc>Thorembais-les-Béguines Sentier n°44 Chaussée de Charleroi</desc>
<link href="https://chemins.be/thorembaislesbeguines/sentier/44"/><trkseg>
<trkpt lat="50.647577" lon="4.794222"><time>2026-05-02T15:55:07Z</time></trkpt>
<trkpt lat="50.648479" lon="4.792798"><time>2026-05-02T16:05:07Z</time></trkpt>
</trkseg>
</trk>
<trk>
<name>bpwtb45</name>
<cmt>q</cmt>
<desc>Thorembais-les-Béguines Sentier n°45 </desc>
<link href="https://chemins.be/thorembaislesbeguines/sentier/45"/><trkseg>
<trkpt lat="50.648805" lon="4.837572"><time>2026-05-02T15:25:07Z</time></trkpt>
<trkpt lat="50.649247" lon="4.834790"><time>2026-05-02T15:35:07Z</time></trkpt>
<trkpt lat="50.650642" lon="4.832231"><time>2026-05-02T15:45:07Z</time></trkpt>
<trkpt lat="50.650814" lon="4.829659"><time>2026-05-02T15:55:07Z</time></trkpt>
<trkpt lat="50.651394" lon="4.826299"><time>2026-05-02T16:05:07Z</time></trkpt>
</trkseg>
</trk>
<trk>
<name>bpwtb46</name>
<cmt>q</cmt>
<desc>Thorembais-les-Béguines Sentier n°46 </desc>
<link href="https://chemins.be/thorembaislesbeguines/sentier/46"/><trkseg>
<trkpt lat="50.651892" lon="4.836683"><time>2026-05-02T15:25:07Z</time></trkpt>
<trkpt lat="50.650687" lon="4.832217"><time>2026-05-02T15:35:07Z</time></trkpt>
</trkseg>
</trk>
<trk>
<name>bpwtb49</name>
<cmt>s</cmt>
<desc>Thorembais-les-Béguines Sentier n°49 </desc>
<link href="https://chemins.be/thorembaislesbeguines/sentier/49"/><trkseg>
<trkpt lat="50.659248" lon="4.819296"><time>2026-05-02T15:25:07Z</time></trkpt>
<trkpt lat="50.659490" lon="4.818935"><time>2026-05-02T15:35:07Z</time></trkpt>
<trkpt lat="50.659635" lon="4.818624"><time>2026-05-02T15:45:07Z</time></trkpt>
</trkseg>
</trk>
<trk>
<name>bpwtb50</name>
<cmt>d</cmt>
<desc>Thorembais-les-Béguines Sentier n°50 </desc>
<link href="https://chemins.be/thorembaislesbeguines/sentier/50"/><trkseg>
<trkpt lat="50.659034" lon="4.819081"><time>2026-05-02T15:25:07Z</time></trkpt>
<trkpt lat="50.658610" lon="4.820025"><time>2026-05-02T15:35:07Z</time></trkpt>
</trkseg></trk>
<trk>
<name>bpwtb50</name>
<cmt>q</cmt>
<desc>Thorembais-les-Béguines Sentier n°50 </desc>
<link href="https://chemins.be/thorembaislesbeguines/sentier/50"/><trkseg>
<trkpt lat="50.658610" lon="4.820025"><time>2026-05-02T15:35:07Z</time></trkpt>
<trkpt lat="50.658861" lon="4.822623"><time>2026-05-02T15:45:07Z</time></trkpt>
</trkseg>
</trk>
<trk>
<name>bpwtb51</name>
<cmt>s</cmt>
<desc>Thorembais-les-Béguines Sentier n°51 </desc>
<link href="https://chemins.be/thorembaislesbeguines/sentier/51"/><trkseg>
<trkpt lat="50.659138" lon="4.818312"><time>2026-05-02T15:25:07Z</time></trkpt>
<trkpt lat="50.659152" lon="4.816941"><time>2026-05-02T15:35:07Z</time></trkpt>
</trkseg>
</trk>
<trk>
<name>bpwtb52</name>
<cmt>r</cmt>
<desc>Thorembais-les-Béguines Sentier n°52 Rue du Presbytère</desc>
<link href="https://chemins.be/thorembaislesbeguines/sentier/52"/><trkseg>
<trkpt lat="50.658040" lon="4.818769"><time>2026-05-02T15:25:07Z</time></trkpt>
<trkpt lat="50.657414" lon="4.820078"><time>2026-05-02T15:35:07Z</time></trkpt>
</trkseg>
</trk>
<trk>
<name>bpwtb53</name>
<cmt>r</cmt>
<desc>Thorembais-les-Béguines Sentier n°53 </desc>
<link href="https://chemins.be/thorembaislesbeguines/sentier/53"/><trkseg>
<trkpt lat="50.653071" lon="4.822681"><time>2026-05-02T15:25:07Z</time></trkpt>
<trkpt lat="50.652146" lon="4.822262"><time>2026-05-02T15:35:07Z</time></trkpt>
<trkpt lat="50.651116" lon="4.821502"><time>2026-05-02T15:45:07Z</time></trkpt>
<trkpt lat="50.648911" lon="4.819643"><time>2026-05-02T15:55:07Z</time></trkpt>
<trkpt lat="50.642613" lon="4.813899"><time>2026-05-02T16:05:07Z</time></trkpt>
</trkseg>
</trk>
<trk>
<name>bpwtb54</name>
<cmt>q</cmt>
<desc>Thorembais-les-Béguines Sentier n°54 </desc>
<link href="https://chemins.be/thorembaislesbeguines/sentier/54"/><trkseg>
<trkpt lat="50.662074" lon="4.819430"><time>2026-05-02T15:25:07Z</time></trkpt>
<trkpt lat="50.662671" lon="4.820638"><time>2026-05-02T15:35:07Z</time></trkpt>
<trkpt lat="50.663754" lon="4.821808"><time>2026-05-02T15:45:07Z</time></trkpt>
<trkpt lat="50.665396" lon="4.822658"><time>2026-05-02T15:55:07Z</time></trkpt>
</trkseg>
</trk>
<trk>
<name>bpwtb55</name>
<cmt>v</cmt>
<desc>Thorembais-les-Béguines Sentier n°55 </desc>
<link href="https://chemins.be/thorembaislesbeguines/sentier/55"/><trkseg>
<trkpt lat="50.653690" lon="4.818345"><time>2026-05-02T15:25:07Z</time></trkpt>
<trkpt lat="50.654103" lon="4.818533"><time>2026-05-02T15:35:07Z</time></trkpt>
</trkseg></trk>
<trk>
<name>bpwtb55</name>
<cmt>q</cmt>
<desc>Thorembais-les-Béguines Sentier n°55 </desc>
<link href="https://chemins.be/thorembaislesbeguines/sentier/55"/><trkseg>
<trkpt lat="50.654103" lon="4.818533"><time>2026-05-02T15:35:07Z</time></trkpt>
<trkpt lat="50.654920" lon="4.818739"><time>2026-05-02T15:45:07Z</time></trkpt>
<trkpt lat="50.655260" lon="4.819195"><time>2026-05-02T15:55:07Z</time></trkpt>
<trkpt lat="50.655473" lon="4.819975"><time>2026-05-02T16:05:07Z</time></trkpt>
</trkseg>
</trk>
<trk>
<name>bpwtb56</name>
<cmt>q</cmt>
<desc>Thorembais-les-Béguines Sentier n°56 </desc>
<link href="https://chemins.be/thorembaislesbeguines/sentier/56"/><trkseg>
<trkpt lat="50.655171" lon="4.832827"><time>2026-05-02T15:25:07Z</time></trkpt>
<trkpt lat="50.655487" lon="4.834725"><time>2026-05-02T15:35:07Z</time></trkpt>
</trkseg>
</trk>
<trk>
<name>bpwtb57</name>
<cmt>q</cmt>
<desc>Thorembais-les-Béguines Sentier n°57 </desc>
<link href="https://chemins.be/thorembaislesbeguines/sentier/57"/><trkseg>
<trkpt lat="50.662454" lon="4.832347"><time>2026-05-02T15:25:07Z</time></trkpt>
<trkpt lat="50.662452" lon="4.832955"><time>2026-05-02T15:35:07Z</time></trkpt>
<trkpt lat="50.662233" lon="4.833844"><time>2026-05-02T15:45:07Z</time></trkpt>
</trkseg>
</trk>
<trk>
<name>bpwtb58</name>
<cmt>q</cmt>
<desc>Thorembais-les-Béguines Sentier n°58 </desc>
<link href="https://chemins.be/thorembaislesbeguines/sentier/58"/><trkseg>
<trkpt lat="50.649454" lon="4.796628"><time>2026-05-02T15:25:07Z</time></trkpt>
<trkpt lat="50.649795" lon="4.796213"><time>2026-05-02T15:35:07Z</time></trkpt>
</trkseg></trk>
<trk>
<name>bpwtb58</name>
<cmt>s</cmt>
<desc>Thorembais-les-Béguines Sentier n°58 </desc>
<link href="https://chemins.be/thorembaislesbeguines/sentier/58"/><trkseg>
<trkpt lat="50.649795" lon="4.796213"><time>2026-05-02T15:35:07Z</time></trkpt>
<trkpt lat="50.651236" lon="4.794367"><time>2026-05-02T15:45:07Z</time></trkpt>
</trkseg>
</trk>
<trk>
<name>bpwtb6</name>
<cmt>s</cmt>
<desc>Thorembais-les-Béguines Chemin n°6 </desc>
<link href="https://chemins.be/thorembaislesbeguines/chemin/6"/><trkseg>
<trkpt lat="50.648786" lon="4.793257"><time>2026-05-02T15:25:07Z</time></trkpt>
<trkpt lat="50.651272" lon="4.794354"><time>2026-05-02T15:35:07Z</time></trkpt>
<trkpt lat="50.655204" lon="4.795246"><time>2026-05-02T15:45:07Z</time></trkpt>
</trkseg></trk>
<trk>
<name>bpwtb6</name>
<cmt>r</cmt>
<desc>Thorembais-les-Béguines Chemin n°6 </desc>
<link href="https://chemins.be/thorembaislesbeguines/chemin/6"/><trkseg>
<trkpt lat="50.655204" lon="4.795246"><time>2026-05-02T15:45:07Z</time></trkpt>
<trkpt lat="50.656193" lon="4.797635"><time>2026-05-02T15:55:07Z</time></trkpt>
<trkpt lat="50.658197" lon="4.801040"><time>2026-05-02T16:05:07Z</time></trkpt>
</trkseg></trk>
<trk>
<name>bpwtb6</name>
<cmt>q</cmt>
<desc>Thorembais-les-Béguines Chemin n°6 </desc>
<link href="https://chemins.be/thorembaislesbeguines/chemin/6"/><trkseg>
<trkpt lat="50.658197" lon="4.801040"><time>2026-05-02T16:05:07Z</time></trkpt>
<trkpt lat="50.659892" lon="4.803493"><time>2026-05-02T16:15:07Z</time></trkpt>
</trkseg></trk>
<trk>
<name>bpwtb6</name>
<cmt>d</cmt>
<desc>Thorembais-les-Béguines Chemin n°6 </desc>
<link href="https://chemins.be/thorembaislesbeguines/chemin/6"/><trkseg>
<trkpt lat="50.659892" lon="4.803493"><time>2026-05-02T16:15:07Z</time></trkpt>
<trkpt lat="50.661211" lon="4.805331"><time>2026-05-02T16:25:07Z</time></trkpt>
</trkseg></trk>
<trk>
<name>bpwtb6</name>
<cmt>v</cmt>
<desc>Thorembais-les-Béguines Chemin n°6 </desc>
<link href="https://chemins.be/thorembaislesbeguines/chemin/6"/><trkseg>
<trkpt lat="50.661211" lon="4.805331"><time>2026-05-02T16:25:07Z</time></trkpt>
<trkpt lat="50.663161" lon="4.808643"><time>2026-05-02T16:35:07Z</time></trkpt>
<trkpt lat="50.664983" lon="4.810595"><time>2026-05-02T16:45:07Z</time></trkpt>
</trkseg></trk>
<trk>
<name>bpwtb6</name>
<cmt>s</cmt>
<desc>Thorembais-les-Béguines Chemin n°6 </desc>
<link href="https://chemins.be/thorembaislesbeguines/chemin/6"/><trkseg>
<trkpt lat="50.664983" lon="4.810595"><time>2026-05-02T16:45:07Z</time></trkpt>
<trkpt lat="50.666438" lon="4.812241"><time>2026-05-02T16:55:07Z</time></trkpt>
<trkpt lat="50.668249" lon="4.816396"><time>2026-05-02T17:05:07Z</time></trkpt>
<trkpt lat="50.668877" lon="4.817905"><time>2026-05-02T17:15:07Z</time></trkpt>
</trkseg></trk>
<trk>
<name>bpwtb6</name>
<cmt>v</cmt>
<desc>Thorembais-les-Béguines Chemin n°6 </desc>
<link href="https://chemins.be/thorembaislesbeguines/chemin/6"/><trkseg>
<trkpt lat="50.668877" lon="4.817905"><time>2026-05-02T17:15:07Z</time></trkpt>
<trkpt lat="50.670083" lon="4.819701"><time>2026-05-02T17:25:07Z</time></trkpt>
</trkseg></trk>
<trk>
<name>bpwtb6</name>
<cmt>s</cmt>
<desc>Thorembais-les-Béguines Chemin n°6 </desc>
<link href="https://chemins.be/thorembaislesbeguines/chemin/6"/><trkseg>
<trkpt lat="50.670083" lon="4.819701"><time>2026-05-02T17:25:07Z</time></trkpt>
<trkpt lat="50.671538" lon="4.821689"><time>2026-05-02T17:35:07Z</time></trkpt>
</trkseg>
</trk>
<trk>
<name>bpwtb60</name>
<cmt>q</cmt>
<desc>Thorembais-les-Béguines Sentier n°60 </desc>
<link href="https://chemins.be/thorembaislesbeguines/sentier/60"/><trkseg>
<trkpt lat="50.665450" lon="4.822729"><time>2026-05-02T15:25:07Z</time></trkpt>
<trkpt lat="50.666211" lon="4.823444"><time>2026-05-02T15:35:07Z</time></trkpt>
<trkpt lat="50.667246" lon="4.825590"><time>2026-05-02T15:45:07Z</time></trkpt>
</trkseg>
</trk>
<trk>
<name>bpwtb7</name>
<cmt>q</cmt>
<desc>Thorembais-les-Béguines Chemin n°7 </desc>
<link href="https://chemins.be/thorembaislesbeguines/chemin/7"/><trkseg>
<trkpt lat="50.654276" lon="4.803686"><time>2026-05-02T15:25:07Z</time></trkpt>
<trkpt lat="50.654286" lon="4.798539"><time>2026-05-02T15:35:07Z</time></trkpt>
<trkpt lat="50.654344" lon="4.794989"><time>2026-05-02T15:45:07Z</time></trkpt>
</trkseg>
</trk>
<trk>
<name>bpwtb9</name>
<cmt>r</cmt>
<desc>Thorembais-les-Béguines Chemin n°9 Chemin de Liège</desc>
<link href="https://chemins.be/thorembaislesbeguines/chemin/9"/><trkseg>
<trkpt lat="50.638294" lon="4.793134"><time>2026-05-02T15:25:07Z</time></trkpt>
<trkpt lat="50.638574" lon="4.795285"><time>2026-05-02T15:35:07Z</time></trkpt>
<trkpt lat="50.638594" lon="4.797151"><time>2026-05-02T15:45:07Z</time></trkpt>
</trkseg></trk>
<trk>
<name>bpwtb9</name>
<cmt>s</cmt>
<desc>Thorembais-les-Béguines Chemin n°9 Chemin de Liège</desc>
<link href="https://chemins.be/thorembaislesbeguines/chemin/9"/><trkseg>
<trkpt lat="50.638594" lon="4.797151"><time>2026-05-02T15:45:07Z</time></trkpt>
<trkpt lat="50.637844" lon="4.800651"><time>2026-05-02T15:55:07Z</time></trkpt>
<trkpt lat="50.637738" lon="4.802742"><time>2026-05-02T16:05:07Z</time></trkpt>
<trkpt lat="50.638496" lon="4.806693"><time>2026-05-02T16:15:07Z</time></trkpt>
<trkpt lat="50.638447" lon="4.807682"><time>2026-05-02T16:25:07Z</time></trkpt>
</trkseg>
</trk>
<trk>
<name>bpwtbi1</name>
<cmt>r</cmt>
<desc>Thorembais-les-Béguines Chemin n°i1 </desc>
<link href="https://chemins.be/thorembaislesbeguines/chemin/i1"/><trkseg>
<trkpt lat="50.650458" lon="4.828694"><time>2026-05-02T15:25:07Z</time></trkpt>
<trkpt lat="50.642922" lon="4.822456"><time>2026-05-02T15:35:07Z</time></trkpt>
</trkseg>
</trk>
<trk>
<name>bpwtbi2</name>
<cmt>r</cmt>
<desc>Thorembais-les-Béguines Chemin n°i2 Rue de Long Pre</desc>
<link href="https://chemins.be/thorembaislesbeguines/chemin/i2"/><trkseg>
<trkpt lat="50.647611" lon="4.832653"><time>2026-05-02T15:25:07Z</time></trkpt>
<trkpt lat="50.650476" lon="4.828708"><time>2026-05-02T15:35:07Z</time></trkpt>
<trkpt lat="50.651188" lon="4.826099"><time>2026-05-02T15:45:07Z</time></trkpt>
</trkseg>
</trk>
<trk>
<name>bpwtbi3</name>
<cmt>r</cmt>
<desc>Thorembais-les-Béguines Chemin n°i3 </desc>
<link href="https://chemins.be/thorembaislesbeguines/chemin/i3"/><trkseg>
<trkpt lat="50.648786" lon="4.793228"><time>2026-05-02T15:25:07Z</time></trkpt>
<trkpt lat="50.650088" lon="4.795255"><time>2026-05-02T15:35:07Z</time></trkpt>
<trkpt lat="50.649430" lon="4.796515"><time>2026-05-02T15:45:07Z</time></trkpt>
</trkseg>
</trk>
<trk>
<name>bpwtbp1</name>
<cmt>s</cmt>
<desc>Thorembais-les-Béguines Chemin particulier n°p1 </desc>
<link href="https://chemins.be/thorembaislesbeguines/chemin/p1"/><trkseg>
<trkpt lat="50.661402" lon="4.818843"><time>2026-05-02T15:25:07Z</time></trkpt>
<trkpt lat="50.661086" lon="4.819166"><time>2026-05-02T15:35:07Z</time></trkpt>
</trkseg>
</trk>
<trk>
<name>bpwtbp2</name>
<cmt>s</cmt>
<desc>Thorembais-les-Béguines Chemin particulier n°p2 </desc>
<link href="https://chemins.be/thorembaislesbeguines/chemin/p2"/><trkseg>
<trkpt lat="50.661679" lon="4.819199"><time>2026-05-02T15:25:07Z</time></trkpt>
<trkpt lat="50.661300" lon="4.819549"><time>2026-05-02T15:35:07Z</time></trkpt>
</trkseg>
</trk>
</gpx>